sensor_id;sensor_type;location;lat;lon;timestamp;pressure;altitude;pressure_sealevel;temperature;humidity
63739;BME280;68816;45.558;10.070;2024-03-02T00:00:37;99011.56;;;11.57;100.00
63739;BME280;68816;45.558;10.070;2024-03-02T00:03:04;99009.31;;;11.48;100.00
63739;BME280;68816;45.558;10.070;2024-03-02T00:05:29;99013.72;;;11.44;100.00
63739;BME280;68816;45.558;10.070;2024-03-02T00:07:56;99011.81;;;11.50;100.00
63739;BME280;68816;45.558;10.070;2024-03-02T00:10:25;98999.91;;;11.49;100.00
63739;BME280;68816;45.558;10.070;2024-03-02T00:12:55;99008.41;;;11.38;100.00
63739;BME280;68816;45.558;10.070;2024-03-02T00:17:56;99004.06;;;11.47;100.00
63739;BME280;68816;45.558;10.070;2024-03-02T00:20:22;99001.19;;;11.37;100.00
63739;BME280;68816;45.558;10.070;2024-03-02T00:22:51;99003.63;;;11.23;100.00
63739;BME280;68816;45.558;10.070;2024-03-02T00:25:18;99002.81;;;11.28;100.00
63739;BME280;68816;45.558;10.070;2024-03-02T00:27:47;99009.44;;;11.27;100.00
63739;BME280;68816;45.558;10.070;2024-03-02T00:30:55;99016.97;;;11.36;100.00
63739;BME280;68816;45.558;10.070;2024-03-02T00:33:31;99012.59;;;11.40;100.00
63739;BME280;68816;45.558;10.070;2024-03-02T00:35:57;99008.13;;;11.34;100.00
63739;BME280;68816;45.558;10.070;2024-03-02T00:38:23;99006.19;;;11.35;100.00
63739;BME280;68816;45.558;10.070;2024-03-02T00:40:49;99013.66;;;11.34;100.00
63739;BME280;68816;45.558;10.070;2024-03-02T00:43:41;99012.22;;;11.27;100.00
63739;BME280;68816;45.558;10.070;2024-03-02T00:46:10;99018.22;;;11.19;100.00
63739;BME280;68816;45.558;10.070;2024-03-02T00:48:36;99011.09;;;11.23;100.00
63739;BME280;68816;45.558;10.070;2024-03-02T00:51:03;99003.88;;;11.22;100.00
63739;BME280;68816;45.558;10.070;2024-03-02T00:53:30;99000.53;;;11.20;100.00
63739;BME280;68816;45.558;10.070;2024-03-02T00:55:57;99000.50;;;11.15;100.00
63739;BME280;68816;45.558;10.070;2024-03-02T00:58:24;99019.38;;;11.23;100.00
63739;BME280;68816;45.558;10.070;2024-03-02T01:00:50;99011.69;;;11.30;100.00
63739;BME280;68816;45.558;10.070;2024-03-02T01:03:15;99012.00;;;11.33;100.00
63739;BME280;68816;45.558;10.070;2024-03-02T01:05:41;99017.81;;;11.37;100.00
63739;BME280;68816;45.558;10.070;2024-03-02T01:08:08;99015.88;;;11.37;100.00
63739;BME280;68816;45.558;10.070;2024-03-02T01:10:34;99013.69;;;11.39;100.00
63739;BME280;68816;45.558;10.070;2024-03-02T01:12:59;99015.91;;;11.42;100.00
63739;BME280;68816;45.558;10.070;2024-03-02T01:15:25;99006.69;;;11.27;100.00
63739;BME280;68816;45.558;10.070;2024-03-02T01:17:51;99010.03;;;11.29;100.00
63739;BME280;68816;45.558;10.070;2024-03-02T01:20:16;99007.16;;;11.19;100.00
63739;BME280;68816;45.558;10.070;2024-03-02T01:22:42;99005.56;;;11.23;100.00
63739;BME280;68816;45.558;10.070;2024-03-02T01:25:08;99003.03;;;11.21;100.00
63739;BME280;68816;45.558;10.070;2024-03-02T01:27:34;99004.31;;;11.08;100.00
63739;BME280;68816;45.558;10.070;2024-03-02T01:30:00;99015.94;;;11.05;100.00
63739;BME280;68816;45.558;10.070;2024-03-02T01:32:26;99014.78;;;11.01;100.00
63739;BME280;68816;45.558;10.070;2024-03-02T01:34:51;99013.94;;;11.01;100.00
63739;BME280;68816;45.558;10.070;2024-03-02T01:37:17;99014.31;;;11.09;100.00
63739;BME280;68816;45.558;10.070;2024-03-02T01:39:42;99004.97;;;11.21;100.00
63739;BME280;68816;45.558;10.070;2024-03-02T01:42:08;99011.09;;;11.23;100.00
63739;BME280;68816;45.558;10.070;2024-03-02T01:44:34;99012.66;;;11.13;100.00
63739;BME280;68816;45.558;10.070;2024-03-02T01:47:00;99020.31;;;11.01;100.00
63739;BME280;68816;45.558;10.070;2024-03-02T01:49:26;99010.94;;;11.07;100.00
63739;BME280;68816;45.558;10.070;2024-03-02T01:51:51;99008.69;;;10.99;100.00
63739;BME280;68816;45.558;10.070;2024-03-02T01:54:17;99008.66;;;10.94;100.00
63739;BME280;68816;45.558;10.070;2024-03-02T01:56:43;99013.69;;;11.02;100.00
63739;BME280;68816;45.558;10.070;2024-03-02T01:59:09;99012.31;;;11.00;100.00
63739;BME280;68816;45.558;10.070;2024-03-02T02:01:34;99014.84;;;11.06;100.00
63739;BME280;68816;45.558;10.070;2024-03-02T02:04:00;99005.94;;;10.99;100.00
63739;BME280;68816;45.558;10.070;2024-03-02T02:06:26;99004.06;;;11.10;100.00
63739;BME280;68816;45.558;10.070;2024-03-02T02:08:51;98999.41;;;11.16;100.00
63739;BME280;68816;45.558;10.070;2024-03-02T02:11:17;99002.66;;;11.07;100.00
63739;BME280;68816;45.558;10.070;2024-03-02T02:13:43;99006.22;;;11.03;100.00
63739;BME280;68816;45.558;10.070;2024-03-02T02:16:09;99007.34;;;11.07;100.00
63739;BME280;68816;45.558;10.070;2024-03-02T02:18:35;99004.88;;;11.05;100.00
63739;BME280;68816;45.558;10.070;2024-03-02T02:21:03;99003.50;;;11.08;100.00
63739;BME280;68816;45.558;10.070;2024-03-02T02:23:29;98993.31;;;11.19;100.00
63739;BME280;68816;45.558;10.070;2024-03-02T02:25:54;98993.91;;;11.21;100.00
63739;BME280;68816;45.558;10.070;2024-03-02T02:28:20;98993.88;;;11.16;100.00
63739;BME280;68816;45.558;10.070;2024-03-02T02:30:46;99001.59;;;11.13;100.00
63739;BME280;68816;45.558;10.070;2024-03-02T02:33:12;99004.31;;;11.08;100.00
63739;BME280;68816;45.558;10.070;2024-03-02T02:35:37;98994.69;;;11.11;100.00
63739;BME280;68816;45.558;10.070;2024-03-02T02:38:04;99003.59;;;11.18;100.00
63739;BME280;68816;45.558;10.070;2024-03-02T02:40:30;98990.56;;;11.19;100.00
63739;BME280;68816;45.558;10.070;2024-03-02T02:42:56;98998.81;;;11.13;100.00
63739;BME280;68816;45.558;10.070;2024-03-02T02:45:22;98991.41;;;11.19;100.00
63739;BME280;68816;45.558;10.070;2024-03-02T02:47:49;98997.22;;;11.18;100.00
63739;BME280;68816;45.558;10.070;2024-03-02T02:50:15;98992.75;;;11.11;100.00
63739;BME280;68816;45.558;10.070;2024-03-02T02:52:41;98993.31;;;11.19;100.00
63739;BME280;68816;45.558;10.070;2024-03-02T02:55:09;99004.69;;;11.17;100.00
63739;BME280;68816;45.558;10.070;2024-03-02T02:57:36;99005.47;;;11.12;100.00
63739;BME280;68816;45.558;10.070;2024-03-02T03:00:06;98998.28;;;11.11;100.00
63739;BME280;68816;45.558;10.070;2024-03-02T03:02:38;98990.31;;;11.20;100.00
63739;BME280;68816;45.558;10.070;2024-03-02T03:05:05;98987.47;;;11.10;100.00
63739;BME280;68816;45.558;10.070;2024-03-02T03:07:32;98990.25;;;11.10;100.00
63739;BME280;68816;45.558;10.070;2024-03-02T03:09:58;98988.31;;;11.10;100.00
63739;BME280;68816;45.558;10.070;2024-03-02T03:12:24;98989.94;;;11.06;100.00
63739;BME280;68816;45.558;10.070;2024-03-02T03:14:49;98996.84;;;11.04;100.00
63739;BME280;68816;45.558;10.070;2024-03-02T03:17:15;98997.13;;;11.07;100.00
63739;BME280;68816;45.558;10.070;2024-03-02T03:19:40;98994.38;;;11.12;100.00
63739;BME280;68816;45.558;10.070;2024-03-02T03:22:06;98989.69;;;11.13;100.00
63739;BME280;68816;45.558;10.070;2024-03-02T03:24:32;98988.28;;;11.05;100.00
63739;BME280;68816;45.558;10.070;2024-03-02T03:26:58;99001.53;;;11.03;100.00
63739;BME280;68816;45.558;10.070;2024-03-02T03:29:23;99000.75;;;11.13;100.00
63739;BME280;68816;45.558;10.070;2024-03-02T03:31:49;99001.59;;;11.13;100.00
63739;BME280;68816;45.558;10.070;2024-03-02T03:34:15;98999.19;;;11.22;100.00
63739;BME280;68816;45.558;10.070;2024-03-02T03:36:42;99011.31;;;11.16;100.00
63739;BME280;68816;45.558;10.070;2024-03-02T03:39:07;99005.75;;;11.11;100.00
63739;BME280;68816;45.558;10.070;2024-03-02T03:41:33;98999.41;;;11.16;100.00
63739;BME280;68816;45.558;10.070;2024-03-02T03:43:58;99001.91;;;11.17;100.00
63739;BME280;68816;45.558;10.070;2024-03-02T03:46:24;99003.84;;;11.17;100.00
63739;BME280;68816;45.558;10.070;2024-03-02T03:48:50;99009.91;;;11.13;100.00
63739;BME280;68816;45.558;10.070;2024-03-02T03:51:16;99012.16;;;11.17;100.00
63739;BME280;68816;45.558;10.070;2024-03-02T03:53:41;99015.16;;;11.15;100.00
63739;BME280;68816;45.558;10.070;2024-03-02T03:56:07;99023.75;;;11.19;100.00
63739;BME280;68816;45.558;10.070;2024-03-02T03:58:33;99022.16;;;11.23;100.00
63739;BME280;68816;45.558;10.070;2024-03-02T04:00:58;99019.09;;;11.24;100.00
63739;BME280;68816;45.558;10.070;2024-03-02T04:03:24;99016.06;;;11.26;100.00
63739;BME280;68816;45.558;10.070;2024-03-02T04:05:50;99018.28;;;11.24;100.00
63739;BME280;68816;45.558;10.070;2024-03-02T04:08:16;99023.72;;;11.13;100.00
63739;BME280;68816;45.558;10.070;2024-03-02T04:10:42;99025.44;;;11.20;100.00
63739;BME280;68816;45.558;10.070;2024-03-02T04:13:07;99028.78;;;11.22;100.00
63739;BME280;68816;45.558;10.070;2024-03-02T04:15:33;99022.16;;;11.23;100.00
63739;BME280;68816;45.558;10.070;2024-03-02T04:17:59;99030.41;;;11.18;100.00
63739;BME280;68816;45.558;10.070;2024-03-02T04:20:24;99038.72;;;11.18;100.00
63739;BME280;68816;45.558;10.070;2024-03-02T04:22:50;99037.31;;;11.15;100.00
63739;BME280;68816;45.558;10.070;2024-03-02T04:25:16;99040.63;;;11.12;100.00
63739;BME280;68816;45.558;10.070;2024-03-02T04:27:42;99045.31;;;11.11;100.00
63739;BME280;68816;45.558;10.070;2024-03-02T04:30:07;99042.31;;;11.18;100.00
63739;BME280;68816;45.558;10.070;2024-03-02T04:32:33;99046.19;;;11.17;100.00
63739;BME280;68816;45.558;10.070;2024-03-02T04:34:59;99043.06;;;11.08;100.00
63739;BME280;68816;45.558;10.070;2024-03-02T04:37:24;99038.44;;;11.19;100.00
63739;BME280;68816;45.558;10.070;2024-03-02T04:39:50;99038.16;;;11.16;100.00
63739;BME280;68816;45.558;10.070;2024-03-02T04:42:15;99048.38;;;11.15;100.00
63739;BME280;68816;45.558;10.070;2024-03-02T04:44:41;99048.59;;;11.08;100.00
63739;BME280;68816;45.558;10.070;2024-03-02T04:47:07;99045.56;;;11.10;100.00
63739;BME280;68816;45.558;10.070;2024-03-02T04:49:32;99051.09;;;11.10;100.00
63739;BME280;68816;45.558;10.070;2024-03-02T04:51:58;99054.97;;;11.09;100.00
63739;BME280;68816;45.558;10.070;2024-03-02T04:54:24;99054.72;;;11.10;100.00
63739;BME280;68816;45.558;10.070;2024-03-02T04:56:49;99056.41;;;11.17;100.00
63739;BME280;68816;45.558;10.070;2024-03-02T04:59:18;99049.22;;;11.16;100.00
63739;BME280;68816;45.558;10.070;2024-03-02T05:01:44;99050.25;;;11.09;100.00
63739;BME280;68816;45.558;10.070;2024-03-02T05:04:10;99044.69;;;11.04;100.00
63739;BME280;68816;45.558;10.070;2024-03-02T05:06:40;99051.88;;;11.00;100.00
63739;BME280;68816;45.558;10.070;2024-03-02T05:09:06;99059.00;;;10.96;100.00
63739;BME280;68816;45.558;10.070;2024-03-02T05:11:32;99064.66;;;11.06;100.00
63739;BME280;68816;45.558;10.070;2024-03-02T05:14:07;99063.25;;;11.09;100.00
63739;BME280;68816;45.558;10.070;2024-03-02T05:16:33;99068.53;;;11.10;100.00
63739;BME280;68816;45.558;10.070;2024-03-02T05:18:59;99065.53;;;11.12;100.00
63739;BME280;68816;45.558;10.070;2024-03-02T05:21:25;99068.50;;;11.05;100.00
63739;BME280;68816;45.558;10.070;2024-03-02T05:23:50;99064.06;;;11.04;100.00
63739;BME280;68816;45.558;10.070;2024-03-02T05:26:16;99065.19;;;11.08;100.00
63739;BME280;68816;45.558;10.070;2024-03-02T05:28:42;99066.28;;;11.07;100.00
63739;BME280;68816;45.558;10.070;2024-03-02T05:31:11;99073.56;;;11.19;100.00
63739;BME280;68816;45.558;10.070;2024-03-02T05:33:40;99076.59;;;11.12;100.00
63739;BME280;68816;45.558;10.070;2024-03-02T05:36:05;99082.63;;;11.09;100.00
63739;BME280;68816;45.558;10.070;2024-03-02T05:38:32;99080.75;;;11.15;100.00
63739;BME280;68816;45.558;10.070;2024-03-02T05:40:57;99077.13;;;11.14;100.00
63739;BME280;68816;45.558;10.070;2024-03-02T05:43:23;99073.53;;;11.13;100.00
63739;BME280;68816;45.558;10.070;2024-03-02T05:45:49;99076.03;;;11.15;100.00
63739;BME280;68816;45.558;10.070;2024-03-02T05:48:14;99078.22;;;11.13;100.00
63739;BME280;68816;45.558;10.070;2024-03-02T05:50:40;99082.34;;;11.05;100.00
63739;BME280;68816;45.558;10.070;2024-03-02T05:53:06;99080.41;;;11.06;100.00
63739;BME280;68816;45.558;10.070;2024-03-02T05:55:31;99085.41;;;11.09;100.00
63739;BME280;68816;45.558;10.070;2024-03-02T05:57:57;99087.31;;;11.08;100.00
63739;BME280;68816;45.558;10.070;2024-03-02T06:00:32;99092.34;;;11.11;100.00
63739;BME280;68816;45.558;10.070;2024-03-02T06:02:59;99094.56;;;11.15;100.00
63739;BME280;68816;45.558;10.070;2024-03-02T06:05:25;99092.78;;;10.98;100.00
63739;BME280;68816;45.558;10.070;2024-03-02T06:07:50;99090.06;;;11.03;100.00
63739;BME280;68816;45.558;10.070;2024-03-02T06:10:16;99104.63;;;10.94;100.00
63739;BME280;68816;45.558;10.070;2024-03-02T06:12:43;99108.75;;;10.91;100.00
63739;BME280;68816;45.558;10.070;2024-03-02T06:15:09;99113.28;;;10.76;100.00
63739;BME280;68816;45.558;10.070;2024-03-02T06:17:35;99118.63;;;10.82;100.00
63739;BME280;68816;45.558;10.070;2024-03-02T06:20:01;99117.81;;;10.87;100.00
63739;BME280;68816;45.558;10.070;2024-03-02T06:22:27;99119.16;;;10.84;100.00
63739;BME280;68816;45.558;10.070;2024-03-02T06:24:53;99123.59;;;10.85;100.00
63739;BME280;68816;45.558;10.070;2024-03-02T06:27:18;99125.19;;;10.76;100.00
63739;BME280;68816;45.558;10.070;2024-03-02T06:29:44;99130.78;;;10.81;100.00
63739;BME280;68816;45.558;10.070;2024-03-02T06:32:10;99136.25;;;10.76;100.00
63739;BME280;68816;45.558;10.070;2024-03-02T06:34:35;99138.72;;;10.78;100.00
63739;BME280;68816;45.558;10.070;2024-03-02T06:37:01;99141.94;;;10.91;100.00
63739;BME280;68816;45.558;10.070;2024-03-02T06:39:26;99146.06;;;10.89;100.00
63739;BME280;68816;45.558;10.070;2024-03-02T06:41:52;99155.31;;;10.78;100.00
63739;BME280;68816;45.558;10.070;2024-03-02T06:44:17;99155.66;;;10.81;100.00
63739;BME280;68816;45.558;10.070;2024-03-02T06:46:43;99154.56;;;10.82;100.00
63739;BME280;68816;45.558;10.070;2024-03-02T06:49:09;99160.16;;;10.87;100.00
63739;BME280;68816;45.558;10.070;2024-03-02T06:51:36;99162.59;;;10.84;100.00
63739;BME280;68816;45.558;10.070;2024-03-02T06:54:01;99165.16;;;10.90;100.00
63739;BME280;68816;45.558;10.070;2024-03-02T06:56:27;99167.34;;;10.88;100.00
63739;BME280;68816;45.558;10.070;2024-03-02T06:58:53;99172.84;;;10.83;100.00
63739;BME280;68816;45.558;10.070;2024-03-02T07:01:18;99168.41;;;10.82;100.00
63739;BME280;68816;45.558;10.070;2024-03-02T07:03:45;99172.88;;;10.88;100.00
63739;BME280;68816;45.558;10.070;2024-03-02T07:06:11;99177.00;;;10.86;100.00
63739;BME280;68816;45.558;10.070;2024-03-02T07:08:37;99181.28;;;10.98;100.00
63739;BME280;68816;45.558;10.070;2024-03-02T07:11:02;99189.53;;;10.93;100.00
63739;BME280;68816;45.558;10.070;2024-03-02T07:13:28;99190.78;;;11.07;100.00
63739;BME280;68816;45.558;10.070;2024-03-02T07:15:54;99185.84;;;11.09;100.00
63739;BME280;68816;45.558;10.070;2024-03-02T07:18:29;99203.06;;;11.17;100.00
63739;BME280;68816;45.558;10.070;2024-03-02T07:20:59;99211.28;;;11.06;100.00
63739;BME280;68816;45.558;10.070;2024-03-02T07:23:29;99198.69;;;11.21;100.00
63739;BME280;68816;45.558;10.070;2024-03-02T07:25:56;99207.19;;;11.14;100.00
63739;BME280;68816;45.558;10.070;2024-03-02T07:28:25;99208.06;;;11.20;100.00
63739;BME280;68816;45.558;10.070;2024-03-02T07:31:01;99212.56;;;11.26;100.00
63739;BME280;68816;45.558;10.070;2024-03-02T07:33:27;99209.28;;;11.29;100.00
63739;BME280;68816;45.558;10.070;2024-03-02T07:35:56;99216.22;;;11.31;100.00
63739;BME280;68816;45.558;10.070;2024-03-02T07:38:22;99211.47;;;11.27;100.00
63739;BME280;68816;45.558;10.070;2024-03-02T07:40:49;99212.31;;;11.27;100.00
63739;BME280;68816;45.558;10.070;2024-03-02T07:43:19;99215.66;;;11.29;100.00
63739;BME280;68816;45.558;10.070;2024-03-02T07:45:45;99222.38;;;11.38;100.00
63739;BME280;68816;45.558;10.070;2024-03-02T07:48:10;99221.34;;;11.44;100.00
63739;BME280;68816;45.558;10.070;2024-03-02T07:50:36;99212.81;;;11.51;100.00
63739;BME280;68816;45.558;10.070;2024-03-02T07:53:03;99218.19;;;11.63;100.00
63739;BME280;68816;45.558;10.070;2024-03-02T07:55:29;99221.41;;;11.76;100.00
63739;BME280;68816;45.558;10.070;2024-03-02T07:57:56;99222.81;;;11.84;100.00
63739;BME280;68816;45.558;10.070;2024-03-02T08:00:22;99224.78;;;11.88;100.00
63739;BME280;68816;45.558;10.070;2024-03-02T08:02:49;99225.03;;;11.82;100.00
63739;BME280;68816;45.558;10.070;2024-03-02T08:05:16;99226.44;;;11.84;100.00
63739;BME280;68816;45.558;10.070;2024-03-02T08:07:43;99225.91;;;11.87;100.00
63739;BME280;68816;45.558;10.070;2024-03-02T08:10:09;99227.28;;;11.85;100.00
63739;BME280;68816;45.558;10.070;2024-03-02T08:12:35;99230.59;;;11.82;100.00
63739;BME280;68816;45.558;10.070;2024-03-02T08:15:00;99226.69;;;11.83;100.00
63739;BME280;68816;45.558;10.070;2024-03-02T08:17:26;99238.59;;;11.83;100.00
63739;BME280;68816;45.558;10.070;2024-03-02T08:19:52;99230.34;;;11.88;100.00
63739;BME280;68816;45.558;10.070;2024-03-02T08:22:18;99235.66;;;11.95;100.00
63739;BME280;68816;45.558;10.070;2024-03-02T08:24:44;99239.28;;;12.01;100.00
63739;BME280;68816;45.558;10.070;2024-03-02T08:27:09;99239.63;;;12.04;100.00
63739;BME280;68816;45.558;10.070;2024-03-02T08:29:35;99242.34;;;11.99;100.00
63739;BME280;68816;45.558;10.070;2024-03-02T08:32:01;99254.28;;;12.00;100.00
63739;BME280;68816;45.558;10.070;2024-03-02T08:34:26;99252.28;;;11.95;100.00
63739;BME280;68816;45.558;10.070;2024-03-02T08:36:52;99248.75;;;12.00;100.00
63739;BME280;68816;45.558;10.070;2024-03-02T08:39:18;99254.03;;;12.06;100.00
63739;BME280;68816;45.558;10.070;2024-03-02T08:41:45;99254.31;;;12.05;100.00
63739;BME280;68816;45.558;10.070;2024-03-02T08:44:11;99258.22;;;12.09;100.00
63739;BME280;68816;45.558;10.070;2024-03-02T08:46:39;99262.13;;;12.13;100.00
63739;BME280;68816;45.558;10.070;2024-03-02T08:49:06;99268.25;;;12.15;100.00
63739;BME280;68816;45.558;10.070;2024-03-02T08:51:31;99262.75;;;12.25;100.00
63739;BME280;68816;45.558;10.070;2024-03-02T08:53:57;99266.66;;;12.29;100.00
63739;BME280;68816;45.558;10.070;2024-03-02T08:56:24;99268.66;;;12.33;100.00
63739;BME280;68816;45.558;10.070;2024-03-02T08:58:51;99265.69;;;12.45;100.00
63739;BME280;68816;45.558;10.070;2024-03-02T09:01:17;99266.78;;;12.44;100.00
63739;BME280;68816;45.558;10.070;2024-03-02T09:03:43;99259.94;;;12.57;100.00
63739;BME280;68816;45.558;10.070;2024-03-02T09:06:12;99266.94;;;12.69;100.00
63739;BME280;68816;45.558;10.070;2024-03-02T09:08:39;99263.38;;;12.79;100.00
63739;BME280;68816;45.558;10.070;2024-03-02T09:11:08;99265.34;;;12.84;100.00
63739;BME280;68816;45.558;10.070;2024-03-02T09:13:33;99262.09;;;13.02;100.00
63739;BME280;68816;45.558;10.070;2024-03-02T09:15:59;99264.34;;;13.10;100.00
63739;BME280;68816;45.558;10.070;2024-03-02T09:18:24;99269.44;;;13.28;100.00
63739;BME280;68816;45.558;10.070;2024-03-02T09:20:50;99265.56;;;13.34;100.00
63739;BME280;68816;45.558;10.070;2024-03-02T09:23:16;99270.56;;;13.32;100.00
63739;BME280;68816;45.558;10.070;2024-03-02T09:25:41;99271.41;;;13.38;100.00
63739;BME280;68816;45.558;10.070;2024-03-02T09:28:07;99272.78;;;13.35;100.00
63739;BME280;68816;45.558;10.070;2024-03-02T09:30:33;99268.66;;;13.53;100.00
63739;BME280;68816;45.558;10.070;2024-03-02T09:32:58;99271.72;;;13.51;100.00
63739;BME280;68816;45.558;10.070;2024-03-02T09:35:24;99266.19;;;13.67;100.00
63739;BME280;68816;45.558;10.070;2024-03-02T09:37:50;99268.44;;;13.85;100.00
63739;BME280;68816;45.558;10.070;2024-03-02T09:40:16;99272.59;;;13.87;100.00
63739;BME280;68816;45.558;10.070;2024-03-02T09:42:42;99274.53;;;13.87;100.00
63739;BME280;68816;45.558;10.070;2024-03-02T09:45:09;99267.88;;;13.78;100.00
63739;BME280;68816;45.558;10.070;2024-03-02T09:47:35;99272.03;;;13.75;100.00
63739;BME280;68816;45.558;10.070;2024-03-02T09:50:01;99273.44;;;13.78;100.00
63739;BME280;68816;45.558;10.070;2024-03-02T09:52:27;99270.09;;;13.81;100.00
63739;BME280;68816;45.558;10.070;2024-03-02T09:54:53;99262.59;;;13.76;100.00
63739;BME280;68816;45.558;10.070;2024-03-02T09:57:18;99271.75;;;13.82;100.00
63739;BME280;68816;45.558;10.070;2024-03-02T09:59:44;99272.88;;;13.76;100.00
63739;BME280;68816;45.558;10.070;2024-03-02T10:02:10;99279.31;;;13.91;100.00
63739;BME280;68816;45.558;10.070;2024-03-02T10:04:36;99270.09;;;13.81;100.00
63739;BME280;68816;45.558;10.070;2024-03-02T10:07:17;99277.06;;;13.83;100.00
63739;BME280;68816;45.558;10.070;2024-03-02T10:09:45;99271.50;;;13.83;100.00
63739;BME280;68816;45.558;10.070;2024-03-02T10:12:12;99270.09;;;13.81;100.00
63739;BME280;68816;45.558;10.070;2024-03-02T10:14:38;99272.59;;;13.82;100.00
63739;BME280;68816;45.558;10.070;2024-03-02T10:17:09;99276.50;;;13.81;100.00
63739;BME280;68816;45.558;10.070;2024-03-02T10:19:36;99277.59;;;13.80;100.00
63739;BME280;68816;45.558;10.070;2024-03-02T10:22:06;99283.44;;;13.79;100.00
63739;BME280;68816;45.558;10.070;2024-03-02T10:24:40;99287.06;;;13.74;100.00
63739;BME280;68816;45.558;10.070;2024-03-02T10:29:39;99289.53;;;13.66;100.00
63739;BME280;68816;45.558;10.070;2024-03-02T10:32:08;99287.31;;;13.68;100.00
63739;BME280;68816;45.558;10.070;2024-03-02T10:34:35;99291.78;;;13.74;100.00
63739;BME280;68816;45.558;10.070;2024-03-02T10:37:01;99283.16;;;13.70;100.00
63739;BME280;68816;45.558;10.070;2024-03-02T10:39:27;99286.22;;;13.74;100.00
63739;BME280;68816;45.558;10.070;2024-03-02T10:41:55;99284.56;;;13.78;100.00
63739;BME280;68816;45.558;10.070;2024-03-02T10:44:22;99281.78;;;13.93;100.00
63739;BME280;68816;45.558;10.070;2024-03-02T10:46:49;99285.69;;;13.97;100.00
63739;BME280;68816;45.558;10.070;2024-03-02T10:49:16;99276.25;;;14.03;100.00
63739;BME280;68816;45.558;10.070;2024-03-02T10:51:43;99269.00;;;14.17;97.57
63739;BME280;68816;45.558;10.070;2024-03-02T10:54:08;99257.31;;;14.41;96.76
63739;BME280;68816;45.558;10.070;2024-03-02T10:56:44;99263.44;;;14.48;96.64
63739;BME280;68816;45.558;10.070;2024-03-02T11:00:20;99258.44;;;14.50;92.29
63739;BME280;68816;45.558;10.070;2024-03-02T11:02:15;99262.88;;;14.51;94.65
63739;BME280;68816;45.558;10.070;2024-03-02T11:04:41;99265.13;;;14.44;94.37
63739;BME280;68816;45.558;10.070;2024-03-02T11:07:10;99265.41;;;14.37;95.64
63739;BME280;68816;45.558;10.070;2024-03-02T11:09:41;99263.44;;;14.27;93.05
63739;BME280;68816;45.558;10.070;2024-03-02T11:12:15;99266.50;;;14.16;90.11
63739;BME280;68816;45.558;10.070;2024-03-02T11:14:42;99271.53;;;14.09;91.15
63739;BME280;68816;45.558;10.070;2024-03-02T11:17:14;99258.72;;;14.13;92.12
63739;BME280;68816;45.558;10.070;2024-03-02T11:19:41;99259.81;;;14.22;92.44
63739;BME280;68816;45.558;10.070;2024-03-02T11:22:08;99256.75;;;14.28;94.15
63739;BME280;68816;45.558;10.070;2024-03-02T11:24:34;99253.97;;;14.28;91.55
63739;BME280;68816;45.558;10.070;2024-03-02T11:27:04;99256.47;;;14.35;91.80
63739;BME280;68816;45.558;10.070;2024-03-02T11:32:22;99250.09;;;14.29;91.37
63739;BME280;68816;45.558;10.070;2024-03-02T11:34:51;99248.41;;;14.33;92.14
63739;BME280;68816;45.558;10.070;2024-03-02T11:37:18;99249.53;;;14.32;92.10
63739;BME280;68816;45.558;10.070;2024-03-02T11:39:48;99250.66;;;14.31;90.39
63739;BME280;68816;45.558;10.070;2024-03-02T11:42:15;99247.03;;;14.31;89.74
63739;BME280;68816;45.558;10.070;2024-03-02T11:44:47;99240.94;;;14.19;89.75
63739;BME280;68816;45.558;10.070;2024-03-02T11:47:17;99239.00;;;14.09;90.31
63739;BME280;68816;45.558;10.070;2024-03-02T11:49:50;99236.19;;;14.04;88.84
63739;BME280;68816;45.558;10.070;2024-03-02T11:52:17;99242.31;;;13.96;89.47
63739;BME280;68816;45.558;10.070;2024-03-02T11:54:44;99237.88;;;13.85;88.88
63739;BME280;68816;45.558;10.070;2024-03-02T11:57:18;99238.97;;;13.94;90.02
63739;BME280;68816;45.558;10.070;2024-03-02T11:59:45;99234.81;;;13.86;92.83
63739;BME280;68816;45.558;10.070;2024-03-02T12:02:15;99235.66;;;13.77;93.79
63739;BME280;68816;45.558;10.070;2024-03-02T12:04:42;99234.53;;;13.63;95.43
63739;BME280;68816;45.558;10.070;2024-03-02T12:07:09;99239.78;;;13.54;97.04
63739;BME280;68816;45.558;10.070;2024-03-02T12:09:34;99231.19;;;13.50;98.28
63739;BME280;68816;45.558;10.070;2024-03-02T12:12:09;99240.88;;;13.43;99.13
63739;BME280;68816;45.558;10.070;2024-03-02T12:14:37;99237.78;;;13.24;99.12
63739;BME280;68816;45.558;10.070;2024-03-02T12:17:04;99237.25;;;13.27;99.40
63739;BME280;68816;45.558;10.070;2024-03-02T12:19:32;99230.59;;;13.33;99.22
63739;BME280;68816;45.558;10.070;2024-03-02T12:21:58;99231.69;;;13.27;98.27
63739;BME280;68816;45.558;10.070;2024-03-02T12:24:27;99235.59;;;13.36;98.08
63739;BME280;68816;45.558;10.070;2024-03-02T12:26:53;99231.69;;;13.37;99.50
63739;BME280;68816;45.558;10.070;2024-03-02T12:29:20;99225.00;;;13.23;100.00
63739;BME280;68816;45.558;10.070;2024-03-02T12:31:51;99225.03;;;13.33;100.00
63739;BME280;68816;45.558;10.070;2024-03-02T12:34:21;99223.38;;;13.32;100.00
63739;BME280;68816;45.558;10.070;2024-03-02T12:36:47;99227.75;;;13.18;100.00
63739;BME280;68816;45.558;10.070;2024-03-02T12:39:18;99223.34;;;13.27;99.67
63739;BME280;68816;45.558;10.070;2024-03-02T12:41:45;99222.25;;;13.33;100.00
63739;BME280;68816;45.558;10.070;2024-03-02T12:44:11;99225.03;;;13.33;100.00
63739;BME280;68816;45.558;10.070;2024-03-02T12:46:37;99220.59;;;13.47;100.00